Vero Beach, FL (32962)

1:52 PM EDT on April 18, 2015 (GMT -0400)
4th Lane Vero Beach | | Change Station
CLOSE
Current Station
Personal Weather Station
Location: Vero Beach, FL
Elevation: 25 ft
Nearby Weather Stations

Elev 25 ft 27.61 °N, 80.39 °W | Updated 4 seconds ago

Mostly Cloudy
Mostly Cloudy
87.6 °F
Feels Like 97 °F
N
11.0
Wind Variable Wind from West
Gusts 14.0 mph

Today
High -- | Low -- °F
--% Chance of Precip.
Yesterday
High -- | Low -- °F
Precip. -- in
6:54 AM 7:47 PM
Waning Crescent, 0% visible
Pressure 29.99 in
Visibility 10.0 miles
Clouds Scattered Clouds 4000 ft
Mostly Cloudy 4800 ft
Heat Index 97 °F
Dew Point 75 °F
Humidity 66%
Rainfall 0.00 in
Snow Depth Not available.
UV 8 out of 12
Pollen 5.30 out of 12
Air Quality Not available.
Flu Activity Local Activity
METAR KVRB 181653Z 21012KT 10SM SCT040 BKN048 31/20 A2999 RMK AO2 SLP153 T03060200

More Conditions Fewer Conditions

Pressure 29.99 in
Visibility 10.0 miles
Clouds Scattered Clouds 4000 ft
Mostly Cloudy 4800 ft
Heat Index 97 °F
Dew Point 75 °F
Humidity 66%
Rainfall 0.00 in
Snow Depth Not available.
UV 8 out of 12
Pollen 5.30 out of 12
Air Quality Not available.
Flu Activity Local Activity
METAR KVRB 181653Z 21012KT 10SM SCT040 BKN048 31/20 A2999 RMK AO2 SLP153 T03060200

More Conditions Fewer Conditions

Nowcast | as of 12:21 PM EDT on April 18, 2015

Isolated showers and storms will begin to develop early this afternoon. Best chance for this activity will be along the West Coast sea breeze moving into Lake County and also along the developing East Coast sea breeze across the Treasure Coast. Any storms will move east around 15 to 20 mph with dangerous cloud to ground lightning and heavy downpours the main threats. Additional details...including graphics are available online at: http://www.Srh.NOAA.Gov/mlb/blog.Php

×

10-Day Weather Forecast

Almanac

Astronomy

Apr. 18, 2015 Rise Set
Actual Time
Civil Twilight
Nautical Twilight
Astronomical Twilight
Moon
Length of Visible Light
Length of Day
Tomorrow will be .
, % of the Moon is Illuminated

Today's Extremes

State Highs State Lows

Community

WunderPhotos

Upload Photos

1,814,470 photos uploaded!

WunderBlogs® & News

Nearby

Air Quality

  Air Quality AQ Index Pollutant
Not available.

Snow Depth

Station Depth Elevation

Earthquake Activity

City Distance Mag. Time & Date
Minimum magnitude displayed is 2.5.

Coastal Water Temperatures

Place Temperature

Stations

Nearby Weather Stations

Station Location Temp. Windchill Dew Point Humidity Wind Precip. Elev Updated Type